Time;durP1;ratioP1;P1;durP2;ratioP2;P2;SDS_P1;SDS_P2;PMS_P1;PMS_P2;Temp;Humidity;BMP_temperature;BMP_pressure;BME280_temperature;BME280_humidity;BME280_pressure;Samples;Min_cycle;Max_cycle;Signal;HPM_P1;HPM_P2
2022/12/15 00:40:06;;;;;;;1.90;1.80;;;;;;;-0.27;100.00;98819.59;6093805;23;20074;-87
2022/12/15 00:42:31;;;;;;;0.82;0.82;;;;;;;-0.29;100.00;98816.50;6046200;23;20419;-86
2022/12/15 00:44:57;;;;;;;3.75;3.47;;;;;;;-0.19;100.00;98831.22;6069298;23;20017;-87
2022/12/15 00:47:24;;;;;;;5.75;2.83;;;;;;;-0.19;100.00;98815.66;6069507;23;20102;-87
2022/12/15 01:20:17;;;;;;;1.25;1.15;;;;;;;-0.20;100.00;98873.31;6048484;23;20221;-86
2022/12/15 01:22:54;;;;;;;4.43;4.13;;;;;;;-0.29;100.00;98868.25;6073413;23;20010;-87
2022/12/15 01:25:22;;;;;;;2.45;2.25;;;;;;;-0.21;100.00;98888.88;6069545;23;20018;-87
2022/12/15 01:27:48;;;;;;;1.80;1.70;;;;;;;-0.23;100.00;98877.56;6069398;23;20078;-87
2022/12/15 01:30:15;;;;;;;2.13;1.55;;;;;;;-0.20;100.00;98879.50;6045072;23;20045;-87
2022/12/15 01:32:40;;;;;;;0.80;0.80;;;;;;;-0.41;100.00;98857.78;6069674;23;20085;-87
2022/12/15 01:35:07;;;;;;;2.85;2.63;;;;;;;-0.27;100.00;98871.34;6068918;23;20046;-87
2022/12/15 01:37:33;;;;;;;0.93;0.90;;;;;;;-0.27;100.00;98867.84;6069550;23;20449;-87
2022/12/15 01:42:43;;;;;;;2.83;2.08;;;;;;;-0.30;100.00;98876.81;6093880;23;20351;-86
2022/12/15 01:45:24;;;;;;;1.33;1.25;;;;;;;-0.24;100.00;98889.63;6045124;23;20045;-87
2022/12/15 01:47:56;;;;;;;3.08;2.88;;;;;;;-0.23;100.00;98887.69;6093141;23;20034;-87
2022/12/15 01:50:22;;;;;;;4.10;2.38;;;;;;;-0.31;100.00;98881.47;6068964;23;20347;-87
2022/12/15 01:52:49;;;;;;;2.55;1.33;;;;;;;-0.28;100.00;98888.13;6045144;23;20431;-86
2022/12/15 01:55:16;;;;;;;1.70;1.60;;;;;;;-0.31;100.00;98888.88;6069179;23;20022;-86
2022/12/15 01:57:42;;;;;;;0.65;0.65;;;;;;;-0.35;100.00;98901.72;6069361;23;20325;-87
2022/12/15 02:00:08;;;;;;;1.45;1.25;;;;;;;-0.34;100.00;98890.44;6092793;23;20021;-86
2022/12/15 02:05:08;;;;;;;2.92;2.65;;;;;;;-0.33;100.00;98897.47;6175926;23;20044;-93
2022/12/15 02:07:34;;;;;;;3.83;2.75;;;;;;;-0.31;100.00;98902.50;6132855;23;20013;-94
2022/12/15 02:10:00;;;;;;;3.00;2.85;;;;;;;-0.34;100.00;98898.63;6133269;23;20067;-94
2022/12/15 02:12:44;;;;;;;3.22;2.00;;;;;;;-0.36;100.00;98911.84;6183389;23;20326;-94
2022/12/15 02:15:10;;;;;;;3.45;3.20;;;;;;;-0.34;100.00;98917.69;6157524;23;20364;-93
2022/12/15 02:17:54;;;;;;;2.13;1.92;;;;;;;-0.34;100.00;98912.25;6157340;23;20044;-94
2022/12/15 02:20:32;;;;;;;4.25;3.72;;;;;;;-0.47;100.00;98881.91;6182732;23;20013;-92
2022/12/15 02:23:16;;;;;;;1.00;0.88;;;;;;;-0.45;100.00;98884.25;6179090;23;20040;-93
2022/12/15 02:26:13;;;;;;;5.93;3.92;;;;;;;-0.54;100.00;98875.69;6175153;23;20381;-94
2022/12/15 02:28:57;;;;;;;1.52;1.45;;;;;;;-0.49;100.00;98889.69;6156352;23;20024;-92
2022/12/15 02:31:52;;;;;;;;;;;;;;;-0.51;100.00;98883.84;6157678;23;20091;-92
2022/12/15 02:34:20;;;;;;;2.90;2.80;;;;;;;-0.55;100.00;98896.69;6160723;23;19914;-93
2022/12/15 02:36:51;;;;;;;3.22;2.95;;;;;;;-0.63;100.00;98897.09;6182586;23;20001;-94
2022/12/15 02:39:17;;;;;;;1.80;0.98;;;;;;;-0.68;100.00;98887.34;6131543;23;20040;-92
2022/12/15 02:41:45;;;;;;;4.97;4.30;;;;;;;-0.66;100.00;98900.59;6131381;23;20004;-92
2022/12/15 02:44:16;;;;;;;2.20;2.10;;;;;;;-0.62;100.00;98906.81;6131958;23;20013;-91
2022/12/15 02:47:00;;;;;;;1.48;1.38;;;;;;;-0.64;100.00;98909.13;6156053;23;20013;-94
2022/12/15 02:49:38;;;;;;;0.93;0.93;;;;;;;-0.66;100.00;98914.22;6183420;23;20023;-93
2022/12/15 02:52:18;;;;;;;13.27;2.53;;;;;;;-0.75;100.00;98920.03;6157345;23;20060;-93
2022/12/15 02:55:09;;;;;;;2.42;2.03;;;;;;;-0.66;100.00;98936.00;6182422;23;20028;-93
2022/12/15 02:57:51;;;;;;;5.75;4.40;;;;;;;-0.65;100.00;98926.66;6183505;23;20017;-93
2022/12/15 03:00:17;;;;;;;3.40;1.27;;;;;;;-0.65;100.00;98932.13;6183562;23;20016;-93
2022/12/15 03:02:49;;;;;;;20.27;6.32;;;;;;;-0.57;100.00;98922.78;6127633;23;20510;-92
2022/12/15 03:05:15;;;;;;;3.45;3.15;;;;;;;-0.64;100.00;98939.09;6127166;23;20013;-93
2022/12/15 03:07:41;;;;;;;2.30;1.55;;;;;;;-0.68;100.00;98935.59;6127457;23;20013;-91
2022/12/15 03:10:08;;;;;;;0.85;0.85;;;;;;;-0.62;100.00;98958.56;6126683;23;20088;-93
2022/12/15 03:12:33;;;;;;;0.35;0.35;;;;;;;-0.71;100.00;98948.06;6128083;23;20084;-92
2022/12/15 03:14:59;;;;;;;3.53;2.97;;;;;;;-0.66;100.00;98964.00;6126885;23;20457;-93
2022/12/15 03:17:25;;;;;;;2.92;1.50;;;;;;;-0.67;100.00;98954.28;6101167;23;20021;-93
2022/12/15 03:19:50;;;;;;;0.82;0.82;;;;;;;-0.69;100.00;98956.63;6126191;23;20006;-93
2022/12/15 03:22:16;;;;;;;1.65;1.55;;;;;;;-0.59;100.00;98971.41;6102842;23;20029;-92
2022/12/15 03:24:41;;;;;;;2.80;2.33;;;;;;;-0.51;100.00;98967.50;6127835;23;20032;-92
2022/12/15 03:27:07;;;;;;;2.08;1.05;;;;;;;-0.48;100.00;98972.19;6128893;23;20452;-92
2022/12/15 03:29:33;;;;;;;1.50;1.38;;;;;;;-0.52;100.00;98972.19;6129430;23;20014;-93
2022/12/15 03:31:58;;;;;;;2.33;2.13;;;;;;;-0.56;100.00;98960.50;6155877;23;20180;-94
2022/12/15 03:34:24;;;;;;;0.80;0.80;;;;;;;-0.50;100.00;98985.41;6104887;23;20414;-92
2022/12/15 03:36:50;;;;;;;3.03;2.30;;;;;;;-0.47;100.00;98987.38;6129202;23;20021;-92
2022/12/15 03:39:15;;;;;;;3.70;1.50;;;;;;;-0.51;100.00;98972.97;6128540;23;20009;-93
2022/12/15 03:41:41;;;;;;;1.92;1.83;;;;;;;-0.54;100.00;98977.25;6128277;23;20358;-92
2022/12/15 03:44:07;;;;;;;3.58;3.33;;;;;;;-0.51;100.00;98972.97;6126830;23;20498;-91
2022/12/15 03:46:32;;;;;;;2.00;1.83;;;;;;;-0.51;100.00;98983.84;6104707;23;20018;-93
2022/12/15 03:48:58;;;;;;;1.10;1.10;;;;;;;-0.52;100.00;98974.91;6105039;23;20013;-93
2022/12/15 03:51:23;;;;;;;1.88;1.75;;;;;;;-0.56;100.00;98954.28;6081245;23;20014;-93
2022/12/15 03:53:49;;;;;;;3.33;1.80;;;;;;;-0.55;100.00;98967.53;6104217;23;20109;-94
2022/12/15 03:56:15;;;;;;;1.05;1.05;;;;;;;-0.45;100.00;98976.88;6104138;23;20005;-93
2022/12/15 03:58:41;;;;;;;3.85;3.60;;;;;;;-0.54;100.00;98957.41;6080875;23;20017;-94
2022/12/15 04:01:26;;;;;;;3.05;2.40;;;;;;;-0.47;100.00;98979.19;6081241;23;20092;-93
2022/12/15 04:03:52;;;;;;;5.68;5.13;;;;;;;-0.64;100.00;98969.06;6138000;23;20013;-94
2022/12/15 04:06:17;;;;;;;5.68;3.55;;;;;;;-0.57;100.00;98955.47;6080484;23;20033;-93
2022/12/15 04:08:43;;;;;;;3.53;3.25;;;;;;;-0.58;100.00;98962.84;6104938;23;20076;-93
2022/12/15 04:11:09;;;;;;;3.97;3.53;;;;;;;-0.71;100.00;98948.06;6103595;23;20013;-94
2022/12/15 04:13:34;;;;;;;2.80;2.33;;;;;;;-0.63;100.00;98959.72;6078275;23;20021;-93
2022/12/15 04:16:03;;;;;;;2.83;2.63;;;;;;;-0.49;100.00;98981.53;6102677;23;20014;-92
2022/12/15 04:18:29;;;;;;;2.63;2.42;;;;;;;-0.44;100.00;98989.31;6102653;23;20092;-93
2022/12/15 04:20:54;;;;;;;3.72;3.53;;;;;;;-0.41;100.00;99004.91;6128996;23;20111;-94
2022/12/15 04:23:20;;;;;;;7.43;5.07;;;;;;;-0.45;100.00;98993.22;6128632;23;20036;-93
2022/12/15 05:31:51;;;;;;;5.13;4.38;;;;;;;-0.44;100.00;99060.13;6102713;23;20018;-93
2022/12/15 05:34:21;;;;;;;7.68;2.78;;;;;;;-0.44;100.00;99060.13;6098580;23;20002;-92
2022/12/15 05:36:48;;;;;;;2.88;2.67;;;;;;;-0.48;100.00;99046.50;6074356;23;20065;-94
2022/12/15 05:39:14;;;;;;;3.53;3.00;;;;;;;-0.60;100.00;99024.31;6074796;23;20041;-94
2022/12/15 05:41:40;;;;;;;2.45;2.25;;;;;;;-0.54;100.00;99033.66;6075965;23;20022;-93
2022/12/15 05:44:06;;;;;;;8.15;5.88;;;;;;;-0.58;100.00;99043.78;6094919;23;20090;-95
2022/12/15 05:46:31;;;;;;;5.45;2.65;;;;;;;-0.50;100.00;99067.16;6144855;23;20061;-93
2022/12/15 05:48:57;;;;;;;2.75;2.55;;;;;;;-0.65;100.00;99051.94;6096330;23;20017;-95
2022/12/15 05:51:22;;;;;;;2.10;1.95;;;;;;;-0.58;100.00;99051.94;6094536;23;20022;-94
2022/12/15 05:53:48;;;;;;;3.80;2.33;;;;;;;-0.71;100.00;99045.31;6095811;23;20030;-93
2022/12/15 05:56:14;;;;;;;2.88;2.53;;;;;;;-0.63;100.00;99053.09;6070154;23;20030;-93
2022/12/15 05:58:40;;;;;;;4.15;3.85;;;;;;;-0.65;100.00;99060.91;6096664;23;20010;-94
2022/12/15 06:01:10;;;;;;;7.53;3.45;;;;;;;-0.73;100.00;99055.81;6095433;23;20028;-94
2022/12/15 06:03:37;;;;;;;2.78;2.58;;;;;;;-0.71;100.00;99067.88;6078464;23;20092;-94
2022/12/15 06:06:03;;;;;;;3.05;2.75;;;;;;;-0.70;100.00;99057.75;6068960;23;20028;-93
2022/12/15 06:08:31;;;;;;;4.72;2.10;;;;;;;-0.67;100.00;99065.16;6093055;23;20025;-93
2022/12/15 06:10:56;;;;;;;2.90;2.58;;;;;;;-0.74;100.00;99057.75;6118001;23;20446;-93
2022/12/15 06:13:23;;;;;;;4.22;2.33;;;;;;;-0.63;100.00;99085.00;6094591;23;20118;-93
2022/12/15 06:16:02;;;;;;;0.88;0.85;;;;;;;-0.60;100.00;99101.34;6118963;23;20092;-94
2022/12/15 06:18:30;;;;;;;5.25;3.20;;;;;;;-0.60;100.00;99097.84;6095153;23;20124;-94
2022/12/15 06:21:09;;;;;;;6.63;2.83;;;;;;;-0.58;100.00;99082.69;6097198;23;20346;-95
2022/12/15 06:23:35;;;;;;;3.03;2.72;;;;;;;-0.61;100.00;99104.47;6096342;23;20017;-95
2022/12/15 06:26:22;;;;;;;1.30;1.20;;;;;;;-0.62;100.00;99108.38;6120077;23;20002;-95
2022/12/15 06:28:48;;;;;;;5.80;5.35;;;;;;;-0.67;100.00;99106.00;6098154;23;20434;-93
2022/12/15 06:31:16;;;;;;;1.92;1.83;;;;;;;-0.69;100.00;99102.91;6098393;23;20048;-94
2022/12/15 06:33:42;;;;;;;2.65;1.88;;;;;;;-0.61;100.00;99134.44;6099099;23;20006;-92
2022/12/15 06:36:11;;;;;;;5.75;4.35;;;;;;;-0.55;100.00;99141.06;6123360;23;20065;-95
2022/12/15 06:38:37;;;;;;;5.20;4.65;;;;;;;-0.57;100.00;99144.19;6099004;23;20009;-94
2022/12/15 06:41:04;;;;;;;3.53;2.03;;;;;;;-0.61;100.00;99137.16;6078525;23;20013;-96
2022/12/15 06:43:30;;;;;;;3.03;2.03;;;;;;;-0.60;100.00;99133.25;6099203;23;20017;-94
2022/12/15 06:45:56;;;;;;;11.10;4.55;;;;;;;-0.72;100.00;99128.94;6099738;23;20106;-94
2022/12/15 06:48:22;;;;;;;4.03;3.25;;;;;;;-0.60;100.00;99147.66;6074654;23;20149;-94
2022/12/15 06:50:48;;;;;;;3.33;2.58;;;;;;;-0.68;100.00;99137.13;6051313;23;20041;-95
2022/12/15 06:53:16;;;;;;;6.38;5.78;;;;;;;-0.61;100.00;99153.50;6097712;23;20001;-93
2022/12/15 06:55:42;;;;;;;3.30;3.03;;;;;;;-0.67;100.00;99150.38;6098728;23;20018;-95
2022/12/15 06:58:08;;;;;;;9.73;5.07;;;;;;;-0.65;100.00;99158.16;6097623;23;20018;-94
2022/12/15 07:00:35;;;;;;;5.82;4.28;;;;;;;-0.72;100.00;99158.09;6124103;23;20384;-94
2022/12/15 07:03:14;;;;;;;5.47;3.78;;;;;;;-0.71;100.00;99165.13;6101020;23;20045;-93
2022/12/15 07:05:39;;;;;;;4.32;3.92;;;;;;;-0.64;100.00;99170.59;6078676;23;20022;-94
2022/12/15 07:08:05;;;;;;;4.72;4.30;;;;;;;-0.62;100.00;99174.50;6100634;23;20016;-93
2022/12/15 07:10:30;;;;;;;7.03;3.08;;;;;;;-0.56;100.00;99178.41;6100204;23;20017;-92
2022/12/15 07:12:56;;;;;;;1.88;1.77;;;;;;;-0.62;100.00;99171.00;6101156;23;20020;-94
2022/12/15 07:15:22;;;;;;;4.38;4.00;;;;;;;-0.53;100.00;99190.50;6124831;23;20393;-94
2022/12/15 07:17:48;;;;;;;3.88;3.55;;;;;;;-0.52;100.00;99189.31;6125984;23;20006;-94
2022/12/15 07:20:14;;;;;;;2.33;2.10;;;;;;;-0.58;100.00;99179.97;6103654;23;20010;-94
2022/12/15 07:22:39;;;;;;;3.95;3.28;;;;;;;-0.65;100.00;99169.06;6105664;23;20377;-93
2022/12/15 07:25:05;;;;;;;5.13;2.10;;;;;;;-0.51;100.00;99193.63;6105770;23;20093;-95
2022/12/15 07:27:31;;;;;;;4.75;3.80;;;;;;;-0.66;100.00;99184.59;6077987;23;20021;-93
2022/12/15 07:29:56;;;;;;;2.97;2.72;;;;;;;-0.54;100.00;99197.91;6103479;23;20053;-94
2022/12/15 07:32:22;;;;;;;2.35;2.25;;;;;;;-0.58;100.00;99180.75;6128807;23;20036;-93
2022/12/15 07:34:48;;;;;;;1.33;1.23;;;;;;;-0.57;100.00;99173.38;6127824;23;20101;-94
2022/12/15 07:37:14;;;;;;;5.07;3.38;;;;;;;-0.44;100.00;99181.97;6102648;23;20009;-94
2022/12/15 07:39:40;;;;;;;2.05;1.88;;;;;;;-0.52;100.00;99189.31;6125888;23;20018;-94
2022/12/15 07:42:06;;;;;;;3.30;3.03;;;;;;;-0.36;100.00;99213.53;6104850;23;20396;-94
2022/12/15 07:44:32;;;;;;;0.95;0.95;;;;;;;-0.49;100.00;99197.53;6104346;23;20060;-95
2022/12/15 07:46:58;;;;;;;3.00;2.25;;;;;;;-0.41;100.00;99208.44;6102526;23;20017;-94
2022/12/15 07:49:23;;;;;;;3.67;3.40;;;;;;;-0.30;100.00;99222.88;6125879;23;20026;-95
2022/12/15 07:51:49;;;;;;;1.95;1.85;;;;;;;-0.30;100.00;99226.41;6104038;23;20012;-95
2022/12/15 07:54:15;;;;;;;2.72;2.50;;;;;;;-0.23;100.00;99240.03;6126817;23;20072;-95
2022/12/15 07:56:41;;;;;;;4.13;3.65;;;;;;;-0.30;100.00;99229.13;6126225;23;20019;-94
2022/12/15 07:59:06;;;;;;;1.35;1.33;;;;;;;-0.23;100.00;99250.94;6102333;23;20020;-93
2022/12/15 08:01:33;;;;;;;2.75;2.63;;;;;;;-0.19;100.00;99254.47;6104016;23;20470;-94
2022/12/15 08:03:59;;;;;;;4.65;3.20;;;;;;;-0.11;100.00;99261.50;6123171;23;20092;-96
2022/12/15 08:06:25;;;;;;;12.30;3.72;;;;;;;-0.29;100.00;99236.16;6097624;23;20613;-95
2022/12/15 08:08:50;;;;;;;4.03;3.72;;;;;;;-0.24;100.00;99254.06;6074323;23;20025;-94
2022/12/15 08:11:17;;;;;;;1.95;1.85;;;;;;;-0.13;100.00;99249.44;6073718;23;20022;-94
2022/12/15 08:13:43;;;;;;;2.50;2.13;;;;;;;-0.22;100.00;99225.25;6099392;23;20002;-94
2022/12/15 08:16:10;;;;;;;2.63;2.47;;;;;;;-0.08;100.00;99236.19;6074613;23;20029;-93
2022/12/15 08:18:35;;;;;;;1.70;1.60;;;;;;;-0.15;100.00;99230.72;6122784;23;20005;-93
2022/12/15 08:21:02;;;;;;;5.15;3.72;;;;;;;-0.04;100.00;99250.63;6074994;23;20541;-93
2022/12/15 08:23:29;;;;;;;2.47;2.28;;;;;;;0.07;100.00;99258.84;6098361;23;20097;-94
2022/12/15 08:26:04;;;;;;;5.68;5.25;;;;;;;0.20;100.00;99272.91;6123079;23;20010;-94
2022/12/15 08:28:31;;;;;;;4.80;3.03;;;;;;;0.16;100.00;99261.22;6099266;23;20097;-93
2022/12/15 08:31:03;;;;;;;5.13;4.72;;;;;;;0.27;100.00;99300.19;6122722;23;20016;-93
2022/12/15 08:33:29;;;;;;;3.85;2.75;;;;;;;0.23;100.00;99299.41;6122416;23;20446;-91
2022/12/15 08:36:01;;;;;;;3.92;3.63;;;;;;;0.20;100.00;99289.28;6122269;23;20021;-94
2022/12/15 08:38:27;;;;;;;2.45;1.70;;;;;;;0.31;100.00;99311.88;6098616;23;20018;-93
2022/12/15 08:40:52;;;;;;;4.07;3.72;;;;;;;0.28;100.00;99301.75;6128798;23;20468;-91
2022/12/15 08:43:18;;;;;;;2.65;2.45;;;;;;;0.37;100.00;99310.34;6122996;23;20059;-92
2022/12/15 08:45:43;;;;;;;2.83;2.63;;;;;;;0.29;100.00;99303.28;6122997;23;20390;-91
2022/12/15 08:48:09;;;;;;;6.72;5.55;;;;;;;0.27;100.00;99300.19;6123656;23;20085;-91
2022/12/15 08:50:34;;;;;;;2.58;2.40;;;;;;;0.38;100.00;99328.28;6074177;23;20006;-92
2022/12/15 08:53:00;;;;;;;8.35;4.40;;;;;;;0.34;100.00;99319.28;6122934;23;20101;-91
2022/12/15 08:55:25;;;;;;;8.35;5.22;;;;;;;0.41;100.00;99319.31;6098005;23;20002;-91
2022/12/15 08:57:53;;;;;;;5.93;3.70;;;;;;;0.22;100.00;99276.00;6122959;23;20469;-90
2022/12/15 09:00:18;;;;;;;4.60;3.50;;;;;;;0.53;100.00;99310.75;6122659;23;20122;-91
2022/12/15 09:02:44;;;;;;;5.55;4.20;;;;;;;0.47;100.00;99309.59;6124380;23;20451;-89
2022/12/15 09:05:09;;;;;;;9.25;5.63;;;;;;;0.63;100.00;99318.19;6153492;23;20017;-90
2022/12/15 09:07:35;;;;;;;3.20;2.88;;;;;;;0.71;100.00;99327.97;6103255;23;20072;-90
2022/12/15 09:10:01;;;;;;;5.00;3.95;;;;;;;0.67;100.00;99335.34;6153071;23;20333;-91
2022/12/15 09:12:27;;;;;;;2.58;2.45;;;;;;;0.66;100.00;99333.00;6103139;23;20024;-93
2022/12/15 09:14:52;;;;;;;4.32;4.00;;;;;;;0.66;100.00;99344.72;6104010;23;20009;-93
2022/12/15 09:17:18;;;;;;;2.05;1.95;;;;;;;0.66;100.00;99327.53;6103279;23;20524;-91
2022/12/15 09:19:44;;;;;;;7.18;6.50;;;;;;;0.67;100.00;99329.91;6127397;23;20021;-91
2022/12/15 09:22:09;;;;;;;3.90;3.22;;;;;;;0.64;100.00;99318.97;6102657;23;20020;-91
2022/12/15 09:24:35;;;;;;;6.63;3.70;;;;;;;0.72;100.00;99310.41;6126812;23;20005;-91
2022/12/15 09:27:01;;;;;;;4.30;3.90;;;;;;;0.69;100.00;99294.78;6151978;23;20037;-91
2022/12/15 09:29:27;;;;;;;6.03;5.47;;;;;;;0.56;100.00;99273.75;6127498;23;20005;-91
2022/12/15 09:31:53;;;;;;;3.47;2.85;;;;;;;0.83;100.00;99294.81;6127670;23;20013;-92
2022/12/15 09:34:18;;;;;;;2.80;2.60;;;;;;;0.78;100.00;99280.75;6126067;23;20006;-92
2022/12/15 09:36:44;;;;;;;3.58;3.28;;;;;;;0.71;100.00;99264.38;6100858;23;20666;-90
2022/12/15 09:39:10;;;;;;;4.18;3.53;;;;;;;0.77;100.00;99281.97;6124162;23;20009;-92
2022/12/15 09:41:37;;;;;;;3.92;3.55;;;;;;;0.77;100.00;99285.44;6125943;23;20347;-91
2022/12/15 09:44:05;;;;;;;4.38;4.07;;;;;;;0.83;100.00;99286.63;6125359;23;20083;-90
2022/12/15 09:46:54;;;;;;;2.75;2.53;;;;;;;0.87;100.00;99294.81;6125232;23;20013;-91
2022/12/15 09:49:28;;;;;;;2.72;2.63;;;;;;;0.92;100.00;99284.28;6125530;23;20104;-91
2022/12/15 09:52:17;;;;;;;3.53;2.75;;;;;;;0.93;100.00;99282.34;6152452;23;20013;-91
2022/12/15 09:54:43;;;;;;;1.45;1.35;;;;;;;0.98;100.00;99283.88;6094065;23;20025;-91
2022/12/15 09:57:24;;;;;;;5.28;4.43;;;;;;;0.91;100.00;99280.00;6128140;23;20051;-92
2022/12/15 09:59:50;;;;;;;13.38;7.85;;;;;;;1.02;100.00;99290.13;6128019;23;20021;-90
2022/12/15 10:02:26;;;;;;;3.30;3.05;;;;;;;1.01;100.00;99294.03;6127497;23;20024;-91
2022/12/15 10:05:09;;;;;;;2.97;2.78;;;;;;;1.03;100.00;99288.97;6102358;23;20022;-91
2022/12/15 10:07:47;;;;;;;4.00;3.03;;;;;;;1.03;100.00;99308.06;6126482;23;20450;-91
2022/12/15 10:10:23;;;;;;;2.10;2.00;;;;;;;1.11;100.00;99306.91;6126693;23;20013;-92
2022/12/15 10:12:51;;;;;;;4.25;3.92;;;;;;;1.10;100.00;99305.34;6153483;23;20013;-90
2022/12/15 10:15:22;;;;;;;3.05;2.78;;;;;;;1.10;100.00;99310.78;6153122;23;20020;-91
2022/12/15 10:17:55;;;;;;;1.05;1.05;;;;;;;1.16;100.00;99320.97;6127463;23;20032;-92
2022/12/15 10:20:23;;;;;;;3.93;2.97;;;;;;;1.20;100.00;99326.41;6102366;23;20017;-91
2022/12/15 10:22:50;;;;;;;6.20;3.63;;;;;;;1.10;100.00;99311.59;6127244;23;20241;-91
2022/12/15 10:25:25;;;;;;;4.53;4.15;;;;;;;1.14;100.00;99328.75;6127329;23;20018;-91
2022/12/15 10:28:15;;;;;;;6.80;3.88;;;;;;;1.07;100.00;99330.69;6079236;23;20017;-91
2022/12/15 10:31:03;;;;;;;4.05;3.60;;;;;;;1.07;100.00;99334.22;6151422;23;20022;-91
2022/12/15 10:33:37;;;;;;;2.10;2.00;;;;;;;0.96;100.00;99324.47;6109061;23;20010;-91
2022/12/15 10:36:09;;;;;;;;;;;;;;;1.08;100.00;99337.72;6111060;23;20013;-91
2022/12/15 10:38:37;;;;;;;2.85;1.83;;;;;;;0.99;100.00;99332.66;6127014;23;19919;-92
2022/12/15 10:41:14;;;;;;;7.97;4.13;;;;;;;0.99;100.00;99340.06;6125800;23;20076;-91
2022/12/15 10:43:42;;;;;;;3.08;2.83;;;;;;;0.89;100.00;99328.75;6103213;23;20017;-91
2022/12/15 10:46:08;;;;;;;2.35;2.25;;;;;;;1.00;100.00;99347.88;6102042;23;20385;-91
2022/12/15 10:48:34;;;;;;;5.35;4.32;;;;;;;1.03;100.00;99330.72;6126491;23;20022;-91
2022/12/15 10:51:12;;;;;;;1.90;1.80;;;;;;;1.07;100.00;99336.16;6126482;23;20005;-91
2022/12/15 10:53:50;;;;;;;6.05;3.97;;;;;;;1.02;100.00;99322.91;6152282;23;20013;-91
2022/12/15 10:56:22;;;;;;;2.70;2.50;;;;;;;0.89;100.00;99330.72;6102599;23;20354;-90
2022/12/15 10:58:52;;;;;;;3.13;2.90;;;;;;;0.86;100.00;99337.72;6102299;23;20018;-92
2022/12/15 11:01:20;;;;;;;16.63;6.32;;;;;;;0.82;100.00;99322.50;6126952;23;20013;-90
2022/12/15 11:03:50;;;;;;;2.17;2.08;;;;;;;0.94;100.00;99333.81;6113787;23;20014;-92
2022/12/15 11:06:20;;;;;;;4.90;4.28;;;;;;;0.94;100.00;99316.66;6099125;23;20021;-92
2022/12/15 11:08:46;;;;;;;3.50;3.20;;;;;;;0.89;100.00;99308.88;6097001;23;20129;-91
2022/12/15 11:14:24;;;;;;;6.88;3.13;;;;;;;0.87;100.00;99306.53;6102265;23;20014;-91
2022/12/15 11:16:57;;;;;;;8.98;3.97;;;;;;;0.69;100.00;99267.50;6099395;23;20097;-91
2022/12/15 11:19:38;;;;;;;11.88;4.30;;;;;;;0.92;100.00;99292.50;6097009;23;20017;-91
2022/12/15 11:22:27;;;;;;;17.33;5.78;;;;;;;0.94;100.00;99292.06;6122146;23;20046;-91
2022/12/15 11:25:15;;;;;;;6.95;6.38;;;;;;;0.87;100.00;99279.22;6102303;23;20014;-91
2022/12/15 11:27:42;;;;;;;4.53;3.58;;;;;;;0.78;100.00;99265.16;6124047;23;20602;-92
2022/12/15 11:30:14;;;;;;;5.82;4.50;;;;;;;0.94;100.00;99275.69;6072832;23;20402;-92
2022/12/15 11:32:58;;;;;;;3.38;2.83;;;;;;;1.01;100.00;99274.94;6123864;23;20017;-93
2022/12/15 11:35:33;;;;;;;3.83;3.53;;;;;;;1.06;100.00;99274.50;6121895;23;20014;-91
2022/12/15 11:38:08;;;;;;;6.60;4.90;;;;;;;1.04;100.00;99271.41;6072570;23;20331;-91
2022/12/15 11:40:43;;;;;;;3.45;3.20;;;;;;;1.03;100.00;99275.31;6121575;23;20477;-91
2022/12/15 11:43:30;;;;;;;7.45;5.10;;;;;;;1.00;100.00;99267.91;6097635;23;20017;-91
2022/12/15 11:45:58;;;;;;;3.67;3.38;;;;;;;1.08;100.00;99288.56;6074963;23;20014;-92
2022/12/15 11:48:30;;;;;;;2.10;1.38;;;;;;;1.06;100.00;99291.69;6124533;23;20468;-92
2022/12/15 11:51:29;;;;;;;6.60;6.00;;;;;;;1.07;100.00;99276.88;6123788;23;20025;-92
2022/12/15 11:54:05;;;;;;;2.42;2.13;;;;;;;0.94;100.00;99270.22;6098572;23;20014;-91
2022/12/15 11:56:38;;;;;;;2.17;1.38;;;;;;;1.15;100.00;99288.56;6125618;23;20041;-91
2022/12/15 11:59:17;;;;;;;11.40;6.77;;;;;;;1.07;100.00;99292.47;6098939;23;20025;-94
2022/12/15 12:02:15;;;;;;;5.40;5.10;;;;;;;1.01;100.00;99292.09;6102106;23;20272;-90
2022/12/15 12:05:08;;;;;;;5.90;3.47;;;;;;;1.05;100.00;99289.38;6102201;23;20025;-90
2022/12/15 12:07:44;;;;;;;5.28;3.42;;;;;;;0.97;100.00;99276.88;6123903;23;20022;-90
2022/12/15 12:10:51;;;;;;;7.85;7.05;;;;;;;1.03;100.00;99297.94;6146635;23;20108;-91
2022/12/15 12:13:22;;;;;;;5.20;2.75;;;;;;;1.02;100.00;99284.66;6097221;23;20098;-90
2022/12/15 12:16:08;;;;;;;3.33;3.10;;;;;;;1.12;100.00;99300.28;6123828;23;20014;-90
2022/12/15 12:18:38;;;;;;;1.85;1.60;;;;;;;1.15;100.00;99307.69;6123211;23;20462;-91
2022/12/15 12:21:08;;;;;;;3.22;3.03;;;;;;;1.07;100.00;99273.34;6073948;23;20014;-91
2022/12/15 12:23:44;;;;;;;5.25;2.15;;;;;;;1.02;100.00;99269.06;6097644;23;20428;-91
2022/12/15 12:26:15;;;;;;;5.88;3.53;;;;;;;1.29;100.00;99308.47;6121862;23;20097;-92
2022/12/15 12:28:46;;;;;;;5.68;4.68;;;;;;;1.32;100.00;99276.84;6124813;23;20018;-91
2022/12/15 12:31:24;;;;;;;2.15;2.05;;;;;;;1.30;100.00;99301.03;6147208;23;20072;-92
2022/12/15 12:33:51;;;;;;;4.47;4.10;;;;;;;1.14;100.00;99282.31;6148104;23;20010;-91
2022/12/15 12:36:17;;;;;;;6.85;4.93;;;;;;;1.21;100.00;99303.41;6074557;23;20020;-91
2022/12/15 12:38:47;;;;;;;3.22;2.85;;;;;;;0.97;100.00;99255.03;6122148;23;20097;-93
2022/12/15 12:41:38;;;;;;;4.57;2.78;;;;;;;1.16;100.00;99273.75;6120022;23;20021;-92
2022/12/15 12:44:28;;;;;;;7.47;6.15;;;;;;;1.18;100.00;99282.31;6114860;23;20494;-92
2022/12/15 12:46:55;;;;;;;3.33;3.13;;;;;;;0.82;100.00;99238.66;6121381;23;20052;-93
2022/12/15 12:49:26;;;;;;;4.70;4.15;;;;;;;1.08;100.00;99272.19;6119717;23;20494;-92
2022/12/15 12:51:54;;;;;;;6.43;5.38;;;;;;;1.09;100.00;99276.47;6120387;23;20014;-92
2022/12/15 12:54:34;;;;;;;3.58;2.55;;;;;;;1.12;100.00;99294.81;6119219;23;20046;-91
2022/12/15 12:57:22;;;;;;;6.95;5.47;;;;;;;1.12;100.00;99283.88;6120258;23;20737;-93
2022/12/15 13:00:19;;;;;;;2.78;2.55;;;;;;;1.18;100.00;99290.50;6094312;23;20100;-91
2022/12/15 13:02:53;;;;;;;7.93;4.95;;;;;;;1.18;100.00;99285.03;6135046;23;20025;-89
2022/12/15 13:05:24;;;;;;;;;;;;;;;1.18;100.00;99288.56;6124050;23;20053;-89
2022/12/15 13:08:17;;;;;;;7.70;4.43;;;;;;;1.15;100.00;99262.03;6150718;23;20344;-90
2022/12/15 13:10:46;;;;;;;4.22;3.72;;;;;;;1.31;100.00;99275.28;6126437;23;20013;-89
2022/12/15 13:13:15;;;;;;;2.75;2.55;;;;;;;1.26;100.00;99262.78;6152479;23;20006;-91
2022/12/15 13:15:43;;;;;;;6.68;6.07;;;;;;;1.24;100.00;99269.81;6151437;23;20062;-91
2022/12/15 13:18:22;;;;;;;5.55;5.07;;;;;;;1.27;100.00;99290.88;6099474;23;20017;-91
2022/12/15 13:20:49;;;;;;;4.32;3.25;;;;;;;1.07;100.00;99251.50;6124435;23;20017;-91
2022/12/15 13:23:20;;;;;;;3.03;2.83;;;;;;;1.12;100.00;99268.28;6124040;23;20064;-92
2022/12/15 13:25:52;;;;;;;2.97;2.78;;;;;;;1.26;100.00;99283.84;6149994;23;20013;-90
2022/12/15 13:28:26;;;;;;;3.33;3.13;;;;;;;1.25;100.00;99272.16;6148487;23;20088;-90
2022/12/15 13:31:15;;;;;;;4.95;3.90;;;;;;;1.31;100.00;99281.50;6148403;23;20010;-91
2022/12/15 13:33:49;;;;;;;3.85;2.83;;;;;;;1.30;100.00;99281.91;6108303;23;20494;-90
2022/12/15 13:36:40;;;;;;;7.90;4.95;;;;;;;1.33;100.00;99281.13;6148300;23;20315;-90
2022/12/15 13:39:11;;;;;;;2.65;2.53;;;;;;;1.32;100.00;99282.31;6125614;23;20028;-91
2022/12/15 13:42:03;;;;;;;9.73;3.72;;;;;;;1.29;100.00;99296.75;6126349;23;20014;-91
2022/12/15 13:44:50;;;;;;;2.85;2.72;;;;;;;1.32;100.00;99295.97;6125904;23;20021;-90
2022/12/15 13:47:25;;;;;;;2.83;2.63;;;;;;;1.32;100.00;99299.47;6103433;23;20037;-89
2022/12/15 13:50:14;;;;;;;2.47;2.30;;;;;;;1.33;100.00;99305.72;6126687;23;20017;-90
2022/12/15 13:52:50;;;;;;;8.38;5.22;;;;;;;1.30;100.00;99295.56;6125620;23;20450;-91
2022/12/15 13:55:20;;;;;;;9.25;5.60;;;;;;;1.29;100.00;99300.28;6101305;23;20331;-92
2022/12/15 13:57:54;;;;;;;3.88;3.58;;;;;;;1.26;100.00;99316.63;6124987;23;20020;-90
2022/12/15 14:00:20;;;;;;;5.80;5.25;;;;;;;1.25;100.00;99309.63;6126021;23;20465;-90
2022/12/15 14:02:46;;;;;;;3.63;3.17;;;;;;;1.27;100.00;99307.28;6126064;23;20032;-89
2022/12/15 14:05:21;;;;;;;1.60;1.52;;;;;;;1.26;100.00;99308.44;6099240;23;20454;-90
2022/12/15 14:07:56;;;;;;;2.20;2.10;;;;;;;1.26;100.00;99311.97;6126877;23;20018;-90
2022/12/15 14:10:40;;;;;;;3.45;2.88;;;;;;;1.24;100.00;99313.53;6124539;23;20104;-90